sensor_id;sensor_type;location;lat;lon;timestamp;temperature;humidity
43183;DHT22;28802;38.578;-0.066;2022-07-10T00:00:11;23.70;99.90
43183;DHT22;28802;38.578;-0.066;2022-07-10T00:02:41;23.60;99.90
43183;DHT22;28802;38.578;-0.066;2022-07-10T00:05:09;23.60;99.90
43183;DHT22;28802;38.578;-0.066;2022-07-10T00:07:35;23.60;99.90
43183;DHT22;28802;38.578;-0.066;2022-07-10T00:10:02;23.80;99.90
43183;DHT22;28802;38.578;-0.066;2022-07-10T00:12:29;23.80;99.90
43183;DHT22;28802;38.578;-0.066;2022-07-10T00:14:55;23.70;99.90
43183;DHT22;28802;38.578;-0.066;2022-07-10T00:17:21;23.70;99.90
43183;DHT22;28802;38.578;-0.066;2022-07-10T00:19:47;23.80;99.90
43183;DHT22;28802;38.578;-0.066;2022-07-10T00:22:13;23.80;99.90
43183;DHT22;28802;38.578;-0.066;2022-07-10T00:24:39;23.80;99.90
43183;DHT22;28802;38.578;-0.066;2022-07-10T00:27:05;24.10;99.90
43183;DHT22;28802;38.578;-0.066;2022-07-10T00:29:31;24.00;99.90
43183;DHT22;28802;38.578;-0.066;2022-07-10T00:31:56;23.90;99.90
43183;DHT22;28802;38.578;-0.066;2022-07-10T00:34:22;23.80;99.90
43183;DHT22;28802;38.578;-0.066;2022-07-10T00:36:48;23.70;99.90
43183;DHT22;28802;38.578;-0.066;2022-07-10T00:39:14;23.60;99.90
43183;DHT22;28802;38.578;-0.066;2022-07-10T00:41:40;23.60;99.90
43183;DHT22;28802;38.578;-0.066;2022-07-10T00:44:06;23.70;99.90
43183;DHT22;28802;38.578;-0.066;2022-07-10T00:46:32;23.60;99.90
43183;DHT22;28802;38.578;-0.066;2022-07-10T00:48:58;23.60;99.90
43183;DHT22;28802;38.578;-0.066;2022-07-10T00:51:26;23.50;99.90
43183;DHT22;28802;38.578;-0.066;2022-07-10T00:53:52;23.40;99.90
43183;DHT22;28802;38.578;-0.066;2022-07-10T00:56:21;23.40;99.90
43183;DHT22;28802;38.578;-0.066;2022-07-10T00:58:47;23.40;99.90
43183;DHT22;28802;38.578;-0.066;2022-07-10T01:01:14;23.40;99.90
43183;DHT22;28802;38.578;-0.066;2022-07-10T01:03:40;23.30;99.90
43183;DHT22;28802;38.578;-0.066;2022-07-10T01:06:07;23.20;99.90
43183;DHT22;28802;38.578;-0.066;2022-07-10T01:08:33;23.20;99.90
43183;DHT22;28802;38.578;-0.066;2022-07-10T01:10:59;23.20;99.90
43183;DHT22;28802;38.578;-0.066;2022-07-10T01:13:26;23.30;99.90
43183;DHT22;28802;38.578;-0.066;2022-07-10T01:15:52;23.20;99.90
43183;DHT22;28802;38.578;-0.066;2022-07-10T01:18:19;23.20;99.90
43183;DHT22;28802;38.578;-0.066;2022-07-10T01:20:45;23.20;99.90
43183;DHT22;28802;38.578;-0.066;2022-07-10T01:23:11;23.20;99.90
43183;DHT22;28802;38.578;-0.066;2022-07-10T01:25:37;23.20;99.90
43183;DHT22;28802;38.578;-0.066;2022-07-10T01:28:03;23.30;99.90
43183;DHT22;28802;38.578;-0.066;2022-07-10T01:30:29;23.20;99.90
43183;DHT22;28802;38.578;-0.066;2022-07-10T01:32:55;23.20;99.90
43183;DHT22;28802;38.578;-0.066;2022-07-10T01:35:21;23.30;99.90
43183;DHT22;28802;38.578;-0.066;2022-07-10T01:37:47;23.30;99.90
43183;DHT22;28802;38.578;-0.066;2022-07-10T01:40:13;23.20;99.90
43183;DHT22;28802;38.578;-0.066;2022-07-10T01:42:39;23.20;99.90
43183;DHT22;28802;38.578;-0.066;2022-07-10T01:45:09;23.20;99.90
43183;DHT22;28802;38.578;-0.066;2022-07-10T01:47:35;23.10;99.90
43183;DHT22;28802;38.578;-0.066;2022-07-10T01:50:01;23.10;99.90
43183;DHT22;28802;38.578;-0.066;2022-07-10T01:52:27;23.00;99.90
43183;DHT22;28802;38.578;-0.066;2022-07-10T01:54:53;23.00;99.90
43183;DHT22;28802;38.578;-0.066;2022-07-10T01:57:19;23.00;99.90
43183;DHT22;28802;38.578;-0.066;2022-07-10T01:59:45;23.00;99.90
43183;DHT22;28802;38.578;-0.066;2022-07-10T02:02:10;22.90;99.90
43183;DHT22;28802;38.578;-0.066;2022-07-10T02:04:36;23.00;99.90
43183;DHT22;28802;38.578;-0.066;2022-07-10T02:07:09;23.00;99.90
43183;DHT22;28802;38.578;-0.066;2022-07-10T02:09:37;23.00;99.90
43183;DHT22;28802;38.578;-0.066;2022-07-10T02:12:03;23.20;99.90
43183;DHT22;28802;38.578;-0.066;2022-07-10T02:14:29;23.10;99.90
43183;DHT22;28802;38.578;-0.066;2022-07-10T02:16:55;23.10;99.90
43183;DHT22;28802;38.578;-0.066;2022-07-10T02:19:21;23.00;99.90
43183;DHT22;28802;38.578;-0.066;2022-07-10T02:21:47;23.00;99.90
43183;DHT22;28802;38.578;-0.066;2022-07-10T02:24:13;23.00;99.90
43183;DHT22;28802;38.578;-0.066;2022-07-10T02:26:39;23.10;99.90
43183;DHT22;28802;38.578;-0.066;2022-07-10T02:29:05;23.00;99.90
43183;DHT22;28802;38.578;-0.066;2022-07-10T02:31:31;22.90;99.90
43183;DHT22;28802;38.578;-0.066;2022-07-10T02:34:00;22.80;99.90
43183;DHT22;28802;38.578;-0.066;2022-07-10T02:36:26;22.90;99.90
43183;DHT22;28802;38.578;-0.066;2022-07-10T02:38:52;22.90;99.90
43183;DHT22;28802;38.578;-0.066;2022-07-10T02:41:18;23.00;99.90
43183;DHT22;28802;38.578;-0.066;2022-07-10T02:43:44;22.90;99.90
43183;DHT22;28802;38.578;-0.066;2022-07-10T02:46:10;23.00;99.90
43183;DHT22;28802;38.578;-0.066;2022-07-10T02:48:36;22.90;99.90
43183;DHT22;28802;38.578;-0.066;2022-07-10T02:51:01;23.00;99.90
43183;DHT22;28802;38.578;-0.066;2022-07-10T02:53:27;22.80;99.90
43183;DHT22;28802;38.578;-0.066;2022-07-10T02:55:53;22.70;99.90
43183;DHT22;28802;38.578;-0.066;2022-07-10T02:58:19;22.70;99.90
43183;DHT22;28802;38.578;-0.066;2022-07-10T03:00:45;22.60;99.90
43183;DHT22;28802;38.578;-0.066;2022-07-10T03:03:11;22.70;99.90
43183;DHT22;28802;38.578;-0.066;2022-07-10T03:05:37;22.70;99.90
43183;DHT22;28802;38.578;-0.066;2022-07-10T03:08:03;22.70;99.90
43183;DHT22;28802;38.578;-0.066;2022-07-10T03:10:29;22.70;99.90
43183;DHT22;28802;38.578;-0.066;2022-07-10T03:12:55;22.70;99.90
43183;DHT22;28802;38.578;-0.066;2022-07-10T03:15:21;22.70;99.90
43183;DHT22;28802;38.578;-0.066;2022-07-10T03:17:47;22.80;99.90
43183;DHT22;28802;38.578;-0.066;2022-07-10T03:20:13;22.60;99.90
43183;DHT22;28802;38.578;-0.066;2022-07-10T03:22:39;22.60;99.90
43183;DHT22;28802;38.578;-0.066;2022-07-10T03:25:05;22.60;99.90
43183;DHT22;28802;38.578;-0.066;2022-07-10T03:27:31;22.30;99.90
43183;DHT22;28802;38.578;-0.066;2022-07-10T03:29:57;22.30;99.90
43183;DHT22;28802;38.578;-0.066;2022-07-10T03:32:22;22.30;99.90
43183;DHT22;28802;38.578;-0.066;2022-07-10T03:34:48;22.20;99.90
43183;DHT22;28802;38.578;-0.066;2022-07-10T03:37:14;22.30;99.90
43183;DHT22;28802;38.578;-0.066;2022-07-10T03:39:40;22.40;99.90
43183;DHT22;28802;38.578;-0.066;2022-07-10T03:42:06;22.50;99.90
43183;DHT22;28802;38.578;-0.066;2022-07-10T03:44:32;22.70;99.90
43183;DHT22;28802;38.578;-0.066;2022-07-10T03:46:58;23.00;99.90
43183;DHT22;28802;38.578;-0.066;2022-07-10T03:49:24;23.20;99.90
43183;DHT22;28802;38.578;-0.066;2022-07-10T03:51:50;23.30;99.90
43183;DHT22;28802;38.578;-0.066;2022-07-10T03:54:16;23.30;99.90
43183;DHT22;28802;38.578;-0.066;2022-07-10T03:56:42;23.30;99.90
43183;DHT22;28802;38.578;-0.066;2022-07-10T03:59:26;23.30;99.90
43183;DHT22;28802;38.578;-0.066;2022-07-10T04:01:52;23.20;99.90
43183;DHT22;28802;38.578;-0.066;2022-07-10T04:04:18;23.20;99.90
43183;DHT22;28802;38.578;-0.066;2022-07-10T04:06:44;23.40;99.90
43183;DHT22;28802;38.578;-0.066;2022-07-10T04:09:09;23.20;99.90
43183;DHT22;28802;38.578;-0.066;2022-07-10T04:11:35;23.20;99.90
43183;DHT22;28802;38.578;-0.066;2022-07-10T04:14:01;23.10;99.90
43183;DHT22;28802;38.578;-0.066;2022-07-10T04:16:27;23.20;99.90
43183;DHT22;28802;38.578;-0.066;2022-07-10T04:18:53;23.00;99.90
43183;DHT22;28802;38.578;-0.066;2022-07-10T04:21:19;22.90;99.90
43183;DHT22;28802;38.578;-0.066;2022-07-10T04:23:45;22.80;99.90
43183;DHT22;28802;38.578;-0.066;2022-07-10T04:26:11;22.70;99.90
43183;DHT22;28802;38.578;-0.066;2022-07-10T04:28:37;22.50;99.90
43183;DHT22;28802;38.578;-0.066;2022-07-10T04:31:02;22.50;99.90
43183;DHT22;28802;38.578;-0.066;2022-07-10T04:33:28;22.50;99.90
43183;DHT22;28802;38.578;-0.066;2022-07-10T04:35:54;22.50;99.90
43183;DHT22;28802;38.578;-0.066;2022-07-10T04:38:20;22.50;99.90
43183;DHT22;28802;38.578;-0.066;2022-07-10T04:40:46;22.60;99.90
43183;DHT22;28802;38.578;-0.066;2022-07-10T04:43:12;22.60;99.90
43183;DHT22;28802;38.578;-0.066;2022-07-10T04:45:38;22.60;99.90
43183;DHT22;28802;38.578;-0.066;2022-07-10T04:48:05;22.70;99.90
43183;DHT22;28802;38.578;-0.066;2022-07-10T04:50:31;22.70;99.90
43183;DHT22;28802;38.578;-0.066;2022-07-10T04:52:57;22.70;99.90
43183;DHT22;28802;38.578;-0.066;2022-07-10T04:55:23;22.70;99.90
43183;DHT22;28802;38.578;-0.066;2022-07-10T04:57:49;22.60;99.90
43183;DHT22;28802;38.578;-0.066;2022-07-10T05:00:16;22.60;99.90
43183;DHT22;28802;38.578;-0.066;2022-07-10T05:02:42;22.60;99.90
43183;DHT22;28802;38.578;-0.066;2022-07-10T05:05:08;22.60;99.90
43183;DHT22;28802;38.578;-0.066;2022-07-10T05:07:34;22.70;99.90
43183;DHT22;28802;38.578;-0.066;2022-07-10T05:10:00;23.00;99.90
43183;DHT22;28802;38.578;-0.066;2022-07-10T05:12:26;23.40;99.90
43183;DHT22;28802;38.578;-0.066;2022-07-10T05:14:52;23.90;99.90
43183;DHT22;28802;38.578;-0.066;2022-07-10T05:17:18;24.50;99.90
43183;DHT22;28802;38.578;-0.066;2022-07-10T05:19:44;25.10;99.90
43183;DHT22;28802;38.578;-0.066;2022-07-10T05:22:10;25.70;99.90
43183;DHT22;28802;38.578;-0.066;2022-07-10T05:24:36;26.30;99.90
43183;DHT22;28802;38.578;-0.066;2022-07-10T05:27:02;26.80;99.90
43183;DHT22;28802;38.578;-0.066;2022-07-10T05:29:28;27.40;99.90
43183;DHT22;28802;38.578;-0.066;2022-07-10T05:31:54;27.90;99.90
43183;DHT22;28802;38.578;-0.066;2022-07-10T05:34:20;28.30;99.90
43183;DHT22;28802;38.578;-0.066;2022-07-10T05:36:46;28.80;99.90
43183;DHT22;28802;38.578;-0.066;2022-07-10T05:39:12;29.40;99.90
43183;DHT22;28802;38.578;-0.066;2022-07-10T05:41:38;29.70;99.90
43183;DHT22;28802;38.578;-0.066;2022-07-10T05:44:04;30.20;99.90
43183;DHT22;28802;38.578;-0.066;2022-07-10T05:46:30;30.60;99.90
43183;DHT22;28802;38.578;-0.066;2022-07-10T05:48:56;31.10;99.90
43183;DHT22;28802;38.578;-0.066;2022-07-10T05:51:21;31.50;99.90
43183;DHT22;28802;38.578;-0.066;2022-07-10T05:53:47;31.90;99.90
43183;DHT22;28802;38.578;-0.066;2022-07-10T05:56:13;32.20;99.90
43183;DHT22;28802;38.578;-0.066;2022-07-10T05:58:39;32.50;99.90
43183;DHT22;28802;38.578;-0.066;2022-07-10T06:01:05;32.70;99.90
43183;DHT22;28802;38.578;-0.066;2022-07-10T06:03:31;33.10;99.90
43183;DHT22;28802;38.578;-0.066;2022-07-10T06:05:58;33.30;99.90
43183;DHT22;28802;38.578;-0.066;2022-07-10T06:08:25;33.80;99.90
43183;DHT22;28802;38.578;-0.066;2022-07-10T06:10:51;34.00;99.90
43183;DHT22;28802;38.578;-0.066;2022-07-10T06:13:17;34.10;99.90
43183;DHT22;28802;38.578;-0.066;2022-07-10T06:15:42;34.30;99.90
43183;DHT22;28802;38.578;-0.066;2022-07-10T06:18:08;34.50;99.90
43183;DHT22;28802;38.578;-0.066;2022-07-10T06:20:34;34.80;99.90
43183;DHT22;28802;38.578;-0.066;2022-07-10T06:23:00;35.10;99.90
43183;DHT22;28802;38.578;-0.066;2022-07-10T06:25:26;35.40;99.90
43183;DHT22;28802;38.578;-0.066;2022-07-10T06:27:52;35.90;99.90
43183;DHT22;28802;38.578;-0.066;2022-07-10T06:30:18;36.10;99.90
43183;DHT22;28802;38.578;-0.066;2022-07-10T06:32:44;35.50;99.90
43183;DHT22;28802;38.578;-0.066;2022-07-10T06:35:10;34.50;99.90
43183;DHT22;28802;38.578;-0.066;2022-07-10T06:37:36;33.30;99.90
43183;DHT22;28802;38.578;-0.066;2022-07-10T06:40:03;33.20;99.90
43183;DHT22;28802;38.578;-0.066;2022-07-10T06:42:29;32.70;99.90
43183;DHT22;28802;38.578;-0.066;2022-07-10T06:44:58;32.00;99.90
43183;DHT22;28802;38.578;-0.066;2022-07-10T06:47:24;32.40;99.90
43183;DHT22;28802;38.578;-0.066;2022-07-10T06:50:09;32.70;99.90
43183;DHT22;28802;38.578;-0.066;2022-07-10T06:52:36;31.60;99.90
43183;DHT22;28802;38.578;-0.066;2022-07-10T06:55:03;31.50;99.90
43183;DHT22;28802;38.578;-0.066;2022-07-10T06:57:29;31.00;99.90
43183;DHT22;28802;38.578;-0.066;2022-07-10T06:59:55;31.00;99.90
43183;DHT22;28802;38.578;-0.066;2022-07-10T07:02:21;31.10;99.90
43183;DHT22;28802;38.578;-0.066;2022-07-10T07:04:47;31.20;99.90
43183;DHT22;28802;38.578;-0.066;2022-07-10T07:07:13;31.20;99.90
43183;DHT22;28802;38.578;-0.066;2022-07-10T07:09:40;31.10;99.90
43183;DHT22;28802;38.578;-0.066;2022-07-10T07:12:08;30.90;99.90
43183;DHT22;28802;38.578;-0.066;2022-07-10T07:14:35;31.00;99.90
43183;DHT22;28802;38.578;-0.066;2022-07-10T07:17:01;30.90;99.90
43183;DHT22;28802;38.578;-0.066;2022-07-10T07:19:35;30.90;99.90
43183;DHT22;28802;38.578;-0.066;2022-07-10T07:22:23;31.20;99.90
43183;DHT22;28802;38.578;-0.066;2022-07-10T07:25:08;31.20;99.90
43183;DHT22;28802;38.578;-0.066;2022-07-10T07:27:36;31.60;99.90
43183;DHT22;28802;38.578;-0.066;2022-07-10T07:30:08;32.50;99.90
43183;DHT22;28802;38.578;-0.066;2022-07-10T07:32:36;31.70;99.90
43183;DHT22;28802;38.578;-0.066;2022-07-10T07:35:03;31.30;99.90
43183;DHT22;28802;38.578;-0.066;2022-07-10T07:37:36;30.90;99.90
43183;DHT22;28802;38.578;-0.066;2022-07-10T07:40:04;30.40;99.90
43183;DHT22;28802;38.578;-0.066;2022-07-10T07:42:31;30.10;99.90
43183;DHT22;28802;38.578;-0.066;2022-07-10T07:44:57;30.30;99.90
43183;DHT22;28802;38.578;-0.066;2022-07-10T07:47:23;31.00;99.90
43183;DHT22;28802;38.578;-0.066;2022-07-10T07:49:49;31.20;99.90
43183;DHT22;28802;38.578;-0.066;2022-07-10T07:52:15;30.90;99.90
43183;DHT22;28802;38.578;-0.066;2022-07-10T07:54:40;30.90;99.90
43183;DHT22;28802;38.578;-0.066;2022-07-10T07:57:06;30.40;99.90
43183;DHT22;28802;38.578;-0.066;2022-07-10T07:59:32;30.50;99.90
43183;DHT22;28802;38.578;-0.066;2022-07-10T08:01:58;30.40;99.90
43183;DHT22;28802;38.578;-0.066;2022-07-10T08:04:24;30.30;99.90
43183;DHT22;28802;38.578;-0.066;2022-07-10T08:06:50;30.40;99.90
43183;DHT22;28802;38.578;-0.066;2022-07-10T08:09:20;30.40;99.90
43183;DHT22;28802;38.578;-0.066;2022-07-10T08:11:47;30.20;99.90
43183;DHT22;28802;38.578;-0.066;2022-07-10T08:14:13;30.10;99.90
43183;DHT22;28802;38.578;-0.066;2022-07-10T08:16:40;30.20;99.90
43183;DHT22;28802;38.578;-0.066;2022-07-10T08:19:06;30.20;99.90
43183;DHT22;28802;38.578;-0.066;2022-07-10T08:21:32;30.10;99.90
43183;DHT22;28802;38.578;-0.066;2022-07-10T08:24:00;30.30;99.90
43183;DHT22;28802;38.578;-0.066;2022-07-10T08:26:25;30.60;99.90
43183;DHT22;28802;38.578;-0.066;2022-07-10T08:28:51;31.00;99.90
43183;DHT22;28802;38.578;-0.066;2022-07-10T08:31:17;30.70;99.90
43183;DHT22;28802;38.578;-0.066;2022-07-10T08:33:43;31.00;99.90
43183;DHT22;28802;38.578;-0.066;2022-07-10T08:36:09;31.20;99.90
43183;DHT22;28802;38.578;-0.066;2022-07-10T08:38:35;30.70;99.90
43183;DHT22;28802;38.578;-0.066;2022-07-10T08:41:02;30.80;99.90
43183;DHT22;28802;38.578;-0.066;2022-07-10T08:43:31;31.10;99.90
43183;DHT22;28802;38.578;-0.066;2022-07-10T08:45:58;31.10;99.90
43183;DHT22;28802;38.578;-0.066;2022-07-10T08:48:24;30.70;99.90
43183;DHT22;28802;38.578;-0.066;2022-07-10T08:50:54;31.10;99.90
43183;DHT22;28802;38.578;-0.066;2022-07-10T08:53:31;31.60;99.90
43183;DHT22;28802;38.578;-0.066;2022-07-10T08:55:58;31.40;99.90
43183;DHT22;28802;38.578;-0.066;2022-07-10T08:58:26;31.00;99.90
43183;DHT22;28802;38.578;-0.066;2022-07-10T09:00:53;31.20;99.90
43183;DHT22;28802;38.578;-0.066;2022-07-10T09:03:19;31.40;99.90
43183;DHT22;28802;38.578;-0.066;2022-07-10T09:05:45;31.90;99.90
43183;DHT22;28802;38.578;-0.066;2022-07-10T09:08:22;31.70;99.90
43183;DHT22;28802;38.578;-0.066;2022-07-10T09:10:49;31.40;99.90
43183;DHT22;28802;38.578;-0.066;2022-07-10T09:13:16;31.30;99.90
43183;DHT22;28802;38.578;-0.066;2022-07-10T09:15:48;31.10;99.90
43183;DHT22;28802;38.578;-0.066;2022-07-10T09:18:18;31.40;99.90
43183;DHT22;28802;38.578;-0.066;2022-07-10T09:20:45;31.20;99.90
43183;DHT22;28802;38.578;-0.066;2022-07-10T09:23:19;31.30;99.90
43183;DHT22;28802;38.578;-0.066;2022-07-10T09:25:47;31.70;99.90
43183;DHT22;28802;38.578;-0.066;2022-07-10T09:28:16;32.10;99.90
43183;DHT22;28802;38.578;-0.066;2022-07-10T09:30:42;31.20;99.90
43183;DHT22;28802;38.578;-0.066;2022-07-10T09:41:16;30.90;99.90
43183;DHT22;28802;38.578;-0.066;2022-07-10T09:43:50;31.50;99.90
43183;DHT22;28802;38.578;-0.066;2022-07-10T09:46:18;31.00;99.90
43183;DHT22;28802;38.578;-0.066;2022-07-10T09:48:44;30.60;99.90
43183;DHT22;28802;38.578;-0.066;2022-07-10T09:51:11;31.10;99.90
43183;DHT22;28802;38.578;-0.066;2022-07-10T09:53:42;30.80;99.90
43183;DHT22;28802;38.578;-0.066;2022-07-10T09:56:09;30.70;99.90
43183;DHT22;28802;38.578;-0.066;2022-07-10T09:58:36;30.40;99.90
43183;DHT22;28802;38.578;-0.066;2022-07-10T10:01:03;30.20;99.90
43183;DHT22;28802;38.578;-0.066;2022-07-10T10:03:39;29.70;99.90
43183;DHT22;28802;38.578;-0.066;2022-07-10T10:11:05;29.60;99.90
43183;DHT22;28802;38.578;-0.066;2022-07-10T10:13:34;30.00;99.90
43183;DHT22;28802;38.578;-0.066;2022-07-10T10:16:02;30.10;99.90
43183;DHT22;28802;38.578;-0.066;2022-07-10T10:18:28;29.50;99.90
43183;DHT22;28802;38.578;-0.066;2022-07-10T10:20:55;29.30;99.90
43183;DHT22;28802;38.578;-0.066;2022-07-10T10:23:23;29.20;99.90
43183;DHT22;28802;38.578;-0.066;2022-07-10T10:25:53;29.80;99.90
43183;DHT22;28802;38.578;-0.066;2022-07-10T10:28:20;29.60;99.90
43183;DHT22;28802;38.578;-0.066;2022-07-10T10:30:53;29.40;99.90
43183;DHT22;28802;38.578;-0.066;2022-07-10T10:36:00;29.10;99.90
43183;DHT22;28802;38.578;-0.066;2022-07-10T10:46:35;29.70;99.90
43183;DHT22;28802;38.578;-0.066;2022-07-10T10:49:08;29.40;99.90
43183;DHT22;28802;38.578;-0.066;2022-07-10T10:54:29;29.00;99.90
43183;DHT22;28802;38.578;-0.066;2022-07-10T10:57:15;29.10;99.90
43183;DHT22;28802;38.578;-0.066;2022-07-10T10:59:52;29.10;99.90
43183;DHT22;28802;38.578;-0.066;2022-07-10T11:04:51;29.40;99.90
43183;DHT22;28802;38.578;-0.066;2022-07-10T11:07:51;29.90;99.90
43183;DHT22;28802;38.578;-0.066;2022-07-10T11:10:43;30.40;99.90
43183;DHT22;28802;38.578;-0.066;2022-07-10T11:13:14;30.00;99.90
43183;DHT22;28802;38.578;-0.066;2022-07-10T11:15:42;30.10;99.90
43183;DHT22;28802;38.578;-0.066;2022-07-10T11:18:11;30.10;99.90
43183;DHT22;28802;38.578;-0.066;2022-07-10T11:20:48;29.90;99.90
43183;DHT22;28802;38.578;-0.066;2022-07-10T11:23:37;30.00;99.90
43183;DHT22;28802;38.578;-0.066;2022-07-10T11:26:10;29.60;99.90
43183;DHT22;28802;38.578;-0.066;2022-07-10T11:28:51;29.90;99.90
43183;DHT22;28802;38.578;-0.066;2022-07-10T11:31:18;29.70;99.90
43183;DHT22;28802;38.578;-0.066;2022-07-10T11:33:46;30.10;99.90
43183;DHT22;28802;38.578;-0.066;2022-07-10T11:36:21;29.20;99.90
43183;DHT22;28802;38.578;-0.066;2022-07-10T11:39:00;29.10;99.90
43183;DHT22;28802;38.578;-0.066;2022-07-10T11:41:26;29.30;99.90
43183;DHT22;28802;38.578;-0.066;2022-07-10T11:43:54;29.90;99.90
43183;DHT22;28802;38.578;-0.066;2022-07-10T11:46:22;30.30;99.90
43183;DHT22;28802;38.578;-0.066;2022-07-10T11:48:49;30.10;99.90
43183;DHT22;28802;38.578;-0.066;2022-07-10T11:51:29;29.50;99.90
43183;DHT22;28802;38.578;-0.066;2022-07-10T11:54:15;30.90;99.90
43183;DHT22;28802;38.578;-0.066;2022-07-10T11:56:50;31.90;99.90
43183;DHT22;28802;38.578;-0.066;2022-07-10T11:59:27;33.40;99.90
43183;DHT22;28802;38.578;-0.066;2022-07-10T12:01:54;34.40;99.90
43183;DHT22;28802;38.578;-0.066;2022-07-10T12:04:23;33.80;99.90
43183;DHT22;28802;38.578;-0.066;2022-07-10T12:06:53;35.00;99.90
43183;DHT22;28802;38.578;-0.066;2022-07-10T12:09:21;35.40;99.90
43183;DHT22;28802;38.578;-0.066;2022-07-10T12:12:04;34.60;99.90
43183;DHT22;28802;38.578;-0.066;2022-07-10T12:14:32;34.80;99.90
43183;DHT22;28802;38.578;-0.066;2022-07-10T12:16:59;35.50;99.90
43183;DHT22;28802;38.578;-0.066;2022-07-10T12:19:27;34.50;99.90
43183;DHT22;28802;38.578;-0.066;2022-07-10T12:21:56;35.00;99.90
43183;DHT22;28802;38.578;-0.066;2022-07-10T12:24:22;34.30;99.90
43183;DHT22;28802;38.578;-0.066;2022-07-10T12:26:50;34.50;99.90
43183;DHT22;28802;38.578;-0.066;2022-07-10T12:29:22;33.30;99.90
43183;DHT22;28802;38.578;-0.066;2022-07-10T12:31:50;32.50;99.90
43183;DHT22;28802;38.578;-0.066;2022-07-10T12:34:16;32.60;99.90
43183;DHT22;28802;38.578;-0.066;2022-07-10T12:36:47;32.50;99.90
43183;DHT22;28802;38.578;-0.066;2022-07-10T12:39:23;31.90;99.90
43183;DHT22;28802;38.578;-0.066;2022-07-10T12:42:03;30.50;99.90
43183;DHT22;28802;38.578;-0.066;2022-07-10T12:47:05;30.40;99.90
43183;DHT22;28802;38.578;-0.066;2022-07-10T12:49:56;30.70;99.90
43183;DHT22;28802;38.578;-0.066;2022-07-10T12:52:25;30.90;99.90
43183;DHT22;28802;38.578;-0.066;2022-07-10T12:55:18;31.20;99.90
43183;DHT22;28802;38.578;-0.066;2022-07-10T12:57:59;31.10;99.90
43183;DHT22;28802;38.578;-0.066;2022-07-10T13:00:33;30.90;99.90
43183;DHT22;28802;38.578;-0.066;2022-07-10T13:03:08;31.30;99.90
43183;DHT22;28802;38.578;-0.066;2022-07-10T13:05:38;31.10;99.90
43183;DHT22;28802;38.578;-0.066;2022-07-10T13:10:42;31.10;99.90
43183;DHT22;28802;38.578;-0.066;2022-07-10T13:13:09;30.70;99.90
43183;DHT22;28802;38.578;-0.066;2022-07-10T13:15:39;30.60;99.90
43183;DHT22;28802;38.578;-0.066;2022-07-10T13:18:22;30.90;99.90
43183;DHT22;28802;38.578;-0.066;2022-07-10T13:20:50;30.90;99.90
43183;DHT22;28802;38.578;-0.066;2022-07-10T13:23:17;31.00;99.90
43183;DHT22;28802;38.578;-0.066;2022-07-10T13:25:50;31.10;99.90
43183;DHT22;28802;38.578;-0.066;2022-07-10T13:28:16;31.10;99.90
43183;DHT22;28802;38.578;-0.066;2022-07-10T13:30:42;31.10;99.90
43183;DHT22;28802;38.578;-0.066;2022-07-10T13:33:09;31.50;99.90
43183;DHT22;28802;38.578;-0.066;2022-07-10T13:35:35;31.60;99.90
43183;DHT22;28802;38.578;-0.066;2022-07-10T13:38:03;31.40;99.90
43183;DHT22;28802;38.578;-0.066;2022-07-10T13:40:31;31.60;99.90
43183;DHT22;28802;38.578;-0.066;2022-07-10T13:42:58;32.00;99.90
43183;DHT22;28802;38.578;-0.066;2022-07-10T13:45:24;32.10;99.90
43183;DHT22;28802;38.578;-0.066;2022-07-10T13:47:52;32.10;99.90
43183;DHT22;28802;38.578;-0.066;2022-07-10T13:50:21;32.00;99.90
43183;DHT22;28802;38.578;-0.066;2022-07-10T13:52:48;31.90;99.90
43183;DHT22;28802;38.578;-0.066;2022-07-10T13:55:15;31.80;99.90
43183;DHT22;28802;38.578;-0.066;2022-07-10T13:57:41;31.80;99.90
43183;DHT22;28802;38.578;-0.066;2022-07-10T14:00:08;31.60;99.90
43183;DHT22;28802;38.578;-0.066;2022-07-10T14:02:38;31.40;99.90
43183;DHT22;28802;38.578;-0.066;2022-07-10T14:05:04;31.30;99.90
43183;DHT22;28802;38.578;-0.066;2022-07-10T14:07:30;31.30;99.90
43183;DHT22;28802;38.578;-0.066;2022-07-10T14:09:56;31.30;99.90
43183;DHT22;28802;38.578;-0.066;2022-07-10T14:12:23;31.20;99.90
43183;DHT22;28802;38.578;-0.066;2022-07-10T14:14:49;31.20;99.90
43183;DHT22;28802;38.578;-0.066;2022-07-10T14:17:15;31.20;99.90
43183;DHT22;28802;38.578;-0.066;2022-07-10T14:19:43;31.20;99.90
43183;DHT22;28802;38.578;-0.066;2022-07-10T14:22:09;31.30;99.90
43183;DHT22;28802;38.578;-0.066;2022-07-10T14:24:35;31.30;99.90
43183;DHT22;28802;38.578;-0.066;2022-07-10T14:27:01;31.10;99.90
43183;DHT22;28802;38.578;-0.066;2022-07-10T14:29:27;31.10;99.90
43183;DHT22;28802;38.578;-0.066;2022-07-10T14:31:53;31.10;99.90
43183;DHT22;28802;38.578;-0.066;2022-07-10T14:34:20;31.10;99.90
43183;DHT22;28802;38.578;-0.066;2022-07-10T14:36:50;31.10;99.90
43183;DHT22;28802;38.578;-0.066;2022-07-10T14:39:16;31.10;99.90
43183;DHT22;28802;38.578;-0.066;2022-07-10T14:41:42;31.10;99.90
43183;DHT22;28802;38.578;-0.066;2022-07-10T14:44:08;31.10;99.90
43183;DHT22;28802;38.578;-0.066;2022-07-10T14:46:34;31.20;99.90
43183;DHT22;28802;38.578;-0.066;2022-07-10T14:49:01;31.20;99.90
43183;DHT22;28802;38.578;-0.066;2022-07-10T14:51:27;31.10;99.90
43183;DHT22;28802;38.578;-0.066;2022-07-10T14:53:54;31.00;99.90
43183;DHT22;28802;38.578;-0.066;2022-07-10T14:56:21;31.00;99.90
43183;DHT22;28802;38.578;-0.066;2022-07-10T14:58:48;31.00;99.90
43183;DHT22;28802;38.578;-0.066;2022-07-10T15:01:14;31.00;99.90
43183;DHT22;28802;38.578;-0.066;2022-07-10T15:03:43;30.90;99.90
43183;DHT22;28802;38.578;-0.066;2022-07-10T15:06:10;31.00;99.90
43183;DHT22;28802;38.578;-0.066;2022-07-10T15:08:36;31.00;99.90
43183;DHT22;28802;38.578;-0.066;2022-07-10T15:11:03;30.80;99.90
43183;DHT22;28802;38.578;-0.066;2022-07-10T15:13:30;30.80;99.90
43183;DHT22;28802;38.578;-0.066;2022-07-10T15:15:56;31.00;99.90
43183;DHT22;28802;38.578;-0.066;2022-07-10T15:18:22;31.00;99.90
43183;DHT22;28802;38.578;-0.066;2022-07-10T15:20:48;31.00;99.90
43183;DHT22;28802;38.578;-0.066;2022-07-10T15:23:15;31.00;99.90
43183;DHT22;28802;38.578;-0.066;2022-07-10T15:25:41;30.90;99.90
43183;DHT22;28802;38.578;-0.066;2022-07-10T15:28:10;30.90;99.90
43183;DHT22;28802;38.578;-0.066;2022-07-10T15:30:37;31.00;99.90
43183;DHT22;28802;38.578;-0.066;2022-07-10T15:33:04;30.90;99.90
43183;DHT22;28802;38.578;-0.066;2022-07-10T15:35:33;30.80;99.90
43183;DHT22;28802;38.578;-0.066;2022-07-10T15:37:59;30.70;99.90
43183;DHT22;28802;38.578;-0.066;2022-07-10T15:40:31;30.60;99.90
43183;DHT22;28802;38.578;-0.066;2022-07-10T15:42:57;30.60;99.90
43183;DHT22;28802;38.578;-0.066;2022-07-10T15:45:24;30.50;99.90
43183;DHT22;28802;38.578;-0.066;2022-07-10T15:47:51;30.60;99.90
43183;DHT22;28802;38.578;-0.066;2022-07-10T15:50:17;30.60;99.90
43183;DHT22;28802;38.578;-0.066;2022-07-10T15:52:43;30.60;99.90